Cedar Point, North Carolina
Current Conditions -  °F | °C
As of 5:57 PM on Tuesday 25 Nov 2014 (Local Time) from KNJM Reporting Station
Overcast Overcast  
Wind Chill: 17°   Ceiling: 9000
Heat Index: 17°   Visibility: 7mi
Dew Point: 16°   Wind: 3mph
Humidity: 93%   Direction: 360°N
Pressure: 30.05"   Gusts: NA
Location:  34.7017°N, 77.1399°W
Report Text: KNJM 252257Z 36003KT 7SM FEW015 OVC090 17/16 A3005 RMK AO2 SLP178 T01720161
Loading
Personal Weather Stations






























Interactive Weather Map New forecast layout! Learn more

10-Day Weather Forecast

Advertisements
Track Severe Weather on mobile